Time;durP1;ratioP1;P1;durP2;ratioP2;P2;SDS_P1;SDS_P2;PMS_P1;PMS_P2;Temp;Humidity;BMP_temperature;BMP_pressure;BME280_temperature;BME280_humidity;BME280_pressure;Samples;Min_cycle;Max_cycle;Signal;HPM_P1;HPM_P2
2023/05/15 00:00:16;;;;;;;17.45;14.27;;;15.00;98.40;;;;;;4115212;28;20480;-54
2023/05/15 00:02:19;;;;;;;17.17;14.50;;;15.00;98.50;;;;;;4115431;28;20065;-56
2023/05/15 00:04:22;;;;;;;17.02;14.13;;;15.00;98.60;;;;;;4114205;28;20134;-55
2023/05/15 00:06:24;;;;;;;17.50;13.15;;;14.90;98.70;;;;;;4115467;28;20042;-56
2023/05/15 00:08:26;;;;;;;17.45;13.07;;;14.90;98.80;;;;;;4115646;28;20046;-56
2023/05/15 00:10:28;;;;;;;18.42;15.18;;;15.00;99.20;;;;;;4115524;28;20117;-56
2023/05/15 00:12:30;;;;;;;19.77;13.98;;;15.00;98.60;;;;;;4098188;29;20413;-56
2023/05/15 00:14:32;;;;;;;16.08;14.20;;;14.90;98.80;;;;;;4113802;28;20476;-54
2023/05/15 00:16:34;;;;;;;17.42;13.90;;;14.90;99.10;;;;;;4115467;28;20086;-57
2023/05/15 00:18:38;;;;;;;20.80;15.55;;;14.90;99.10;;;;;;4115434;28;20060;-54
2023/05/15 00:20:40;;;;;;;16.13;13.52;;;14.90;99.00;;;;;;4115353;28;20456;-55
2023/05/15 00:22:42;;;;;;;15.77;13.35;;;15.00;99.20;;;;;;4114666;28;20137;-56
2023/05/15 00:24:44;;;;;;;16.88;13.70;;;14.90;99.00;;;;;;4112020;28;20107;-54
2023/05/15 00:26:46;;;;;;;16.83;14.52;;;14.80;99.00;;;;;;4127123;28;20416;-54
2023/05/15 00:28:48;;;;;;;16.85;13.70;;;14.80;99.10;;;;;;4130826;28;20050;-56
2023/05/15 00:30:51;;;;;;;13.55;12.07;;;14.70;99.70;;;;;;4131293;28;20555;-54
2023/05/15 00:32:53;;;;;;;16.75;14.68;;;14.70;99.80;;;;;;4130490;28;20074;-53
2023/05/15 00:34:56;;;;;;;16.65;13.63;;;14.60;99.40;;;;;;4117849;28;20043;-51
2023/05/15 00:36:58;;;;;;;16.77;14.10;;;14.70;99.90;;;;;;4115068;28;20365;-53
2023/05/15 00:39:00;;;;;;;16.17;12.35;;;14.70;99.80;;;;;;4115070;28;20066;-52
2023/05/15 00:41:05;;;;;;;18.50;13.70;;;14.70;99.90;;;;;;4115075;28;20046;-52
2023/05/15 00:43:08;;;;;;;18.55;15.57;;;14.80;99.90;;;;;;4113995;28;20542;-52
2023/05/15 00:45:11;;;;;;;20.63;15.40;;;14.70;99.60;;;;;;4114959;28;20057;-53
2023/05/15 00:47:16;;;;;;;18.60;16.45;;;14.60;99.60;;;;;;4097873;28;20047;-53
2023/05/15 00:49:20;;;;;;;16.83;15.13;;;14.60;99.60;;;;;;4115023;28;20054;-52
2023/05/15 00:51:24;;;;;;;17.85;14.52;;;14.60;99.70;;;;;;4115214;28;20055;-53
2023/05/15 00:53:27;;;;;;;23.30;17.25;;;14.50;99.90;;;;;;4114412;28;20219;-52
2023/05/15 00:55:31;;;;;;;21.35;16.35;;;14.50;99.90;;;;;;4115262;28;20057;-53
2023/05/15 00:57:33;;;;;;;18.90;15.30;;;14.50;99.90;;;;;;4114785;28;20137;-55
2023/05/15 00:59:37;;;;;;;18.92;15.55;;;14.60;99.90;;;;;;4114961;28;20051;-52
2023/05/15 01:01:40;;;;;;;19.60;17.50;;;14.50;99.90;;;;;;4115418;28;20054;-55
2023/05/15 01:03:42;;;;;;;19.25;17.15;;;14.50;99.90;;;;;;4113784;28;20058;-54
2023/05/15 01:05:44;;;;;;;19.92;16.45;;;14.50;99.90;;;;;;4114737;28;20061;-57
2023/05/15 01:07:56;;;;;;;22.35;16.08;;;14.50;99.90;;;;;;4114812;28;20051;-56
2023/05/15 01:09:59;;;;;;;23.42;16.77;;;14.50;99.90;;;;;;4114755;28;20069;-56
2023/05/15 01:12:03;;;;;;;20.05;16.85;;;14.50;99.90;;;;;;4114620;28;20374;-57
2023/05/15 01:14:07;;;;;;;20.07;17.93;;;14.60;99.90;;;;;;4113825;28;20046;-54
2023/05/15 01:16:10;;;;;;;23.60;20.05;;;14.50;99.90;;;;;;4115099;28;20433;-54
2023/05/15 01:18:12;;;;;;;22.63;20.23;;;14.50;99.90;;;;;;4114671;28;20579;-52
2023/05/15 01:20:18;;;;;;;20.00;17.55;;;14.40;99.90;;;;;;4115057;28;20478;-53
2023/05/15 01:22:39;;;;;;;21.67;17.30;;;14.40;99.90;;;;;;4115179;28;20050;-54
2023/05/15 01:25:06;;;;;;;23.42;20.50;;;14.40;99.90;;;;;;4096791;29;20052;-55
2023/05/15 01:27:19;;;;;;;26.30;20.83;;;14.30;99.90;;;;;;4129665;28;20500;-56
2023/05/15 01:29:26;;;;;;;21.15;18.15;;;14.30;99.90;;;;;;4131115;28;20357;-55
2023/05/15 01:31:32;;;;;;;25.42;20.30;;;14.20;99.90;;;;;;4131407;28;20054;-54
2023/05/15 01:33:39;;;;;;;24.88;21.73;;;14.20;99.90;;;;;;4128150;28;20100;-58
2023/05/15 01:35:48;;;;;;;26.63;22.80;;;14.30;99.90;;;;;;4116336;28;20047;-54
2023/05/15 01:37:59;;;;;;;26.98;22.70;;;14.10;99.90;;;;;;4118029;28;20050;-53
2023/05/15 01:40:04;;;;;;;30.40;24.35;;;14.00;99.90;;;;;;4117656;28;20051;-53
2023/05/15 01:42:08;;;;;;;29.67;25.48;;;14.00;99.90;;;;;;4117917;28;20042;-55
2023/05/15 01:44:17;;;;;;;33.25;25.42;;;14.00;99.90;;;;;;4116493;28;20060;-53
2023/05/15 01:46:22;;;;;;;30.75;25.35;;;14.00;99.90;;;;;;4100290;28;20074;-56
2023/05/15 01:48:26;;;;;;;31.80;26.52;;;13.90;99.90;;;;;;4100476;29;20254;-55
2023/05/15 01:50:31;;;;;;;35.42;27.25;;;13.80;99.90;;;;;;4117414;28;20074;-57
2023/05/15 01:52:37;;;;;;;33.00;25.83;;;13.80;99.90;;;;;;4117481;28;20050;-55
2023/05/15 01:54:40;;;;;;;34.63;27.75;;;13.80;99.90;;;;;;4115945;28;20051;-56
2023/05/15 01:56:44;;;;;;;36.25;28.05;;;13.70;99.90;;;;;;4117149;28;20053;-56
2023/05/15 01:58:48;;;;;;;32.75;26.88;;;13.70;99.90;;;;;;4117078;28;20082;-56
2023/05/15 02:00:52;;;;;;;33.07;27.83;;;13.70;99.90;;;;;;4117295;28;20146;-55
2023/05/15 02:02:55;;;;;;;35.72;27.45;;;13.80;99.90;;;;;;4117261;28;20455;-54
2023/05/15 02:04:58;;;;;;;37.95;28.83;;;13.90;99.90;;;;;;4116179;28;20207;-57
2023/05/15 02:07:02;;;;;;;37.63;30.95;;;13.70;99.90;;;;;;4117038;28;20441;-56
2023/05/15 02:09:05;;;;;;;41.20;33.20;;;13.70;99.90;;;;;;4099289;29;20578;-59
2023/05/15 02:11:08;;;;;;;41.55;33.33;;;13.60;99.90;;;;;;4117181;28;20098;-55
2023/05/15 02:13:12;;;;;;;39.90;32.35;;;13.50;99.90;;;;;;4116494;28;20049;-56
2023/05/15 02:15:17;;;;;;;40.75;31.00;;;13.20;99.90;;;;;;4116517;28;20050;-55
2023/05/15 02:17:21;;;;;;;43.25;32.00;;;13.30;99.90;;;;;;4117108;28;20073;-55
2023/05/15 02:19:23;;;;;;;;;;;13.10;99.90;;;;;;4117521;28;20409;-56
2023/05/15 02:21:25;;;;;;;41.33;31.63;;;13.10;99.90;;;;;;4116796;28;19929;-55
2023/05/15 02:23:27;;;;;;;43.42;33.08;;;13.00;99.90;;;;;;4115673;28;20086;-57
2023/05/15 02:25:37;;;;;;;41.47;32.83;;;13.10;99.90;;;;;;4118507;28;20050;-55
2023/05/15 02:27:47;;;;;;;41.67;31.85;;;13.10;99.90;;;;;;4132924;28;20101;-55
2023/05/15 02:30:02;;;;;;;40.97;31.52;;;13.10;99.90;;;;;;4132703;28;20050;-56
2023/05/15 02:32:10;;;;;;;39.67;31.75;;;13.00;99.90;;;;;;4133116;28;20444;-56
2023/05/15 02:34:20;;;;;;;42.80;32.53;;;12.90;99.90;;;;;;4124358;28;20047;-55
2023/05/15 02:36:27;;;;;;;43.17;33.60;;;12.90;99.90;;;;;;4116855;28;20051;-56
2023/05/15 02:38:34;;;;;;;38.17;30.50;;;13.00;99.90;;;;;;4099324;29;20133;-55
2023/05/15 02:40:36;;;;;;;40.33;30.75;;;13.00;99.90;;;;;;4116754;28;20054;-56
2023/05/15 02:42:39;;;;;;;36.30;29.27;;;13.00;99.90;;;;;;4116558;28;20412;-55
2023/05/15 02:44:43;;;;;;;38.58;29.33;;;12.90;99.90;;;;;;4098406;28;20051;-54
2023/05/15 02:46:45;;;;;;;34.90;28.95;;;12.90;99.90;;;;;;4115472;28;20050;-55
2023/05/15 02:48:47;;;;;;;38.38;29.75;;;12.80;99.90;;;;;;4116325;28;20047;-55
2023/05/15 02:50:52;;;;;;;39.00;31.10;;;12.80;99.90;;;;;;4116570;28;20130;-55
2023/05/15 02:53:01;;;;;;;35.97;28.92;;;12.80;99.90;;;;;;4116200;28;20051;-55
2023/05/15 02:55:03;;;;;;;36.38;28.67;;;12.80;99.90;;;;;;4115189;28;20046;-56
2023/05/15 02:57:06;;;;;;;34.20;27.23;;;12.90;99.90;;;;;;4116278;28;20047;-56
2023/05/15 02:59:09;;;;;;;41.58;31.08;;;12.90;99.90;;;;;;4116562;28;20082;-56
2023/05/15 03:01:11;;;;;;;39.17;30.60;;;12.80;99.90;;;;;;4116504;28;20051;-54
2023/05/15 03:03:13;;;;;;;37.75;30.35;;;12.90;99.90;;;;;;4116031;28;20100;-55
2023/05/15 03:05:15;;;;;;;36.55;28.40;;;12.90;99.90;;;;;;4115229;28;20109;-56
2023/05/15 03:07:19;;;;;;;41.00;31.30;;;12.80;99.90;;;;;;4115950;28;20053;-56
2023/05/15 03:09:21;;;;;;;38.63;30.98;;;12.90;99.90;;;;;;4116069;28;20100;-55
2023/05/15 03:11:23;;;;;;;35.75;28.73;;;12.80;99.90;;;;;;4115979;28;20058;-55
2023/05/15 03:13:25;;;;;;;43.97;33.58;;;12.80;99.90;;;;;;4115435;28;20474;-57
2023/05/15 03:15:27;;;;;;;38.13;28.27;;;12.70;99.90;;;;;;4116266;28;20551;-52
2023/05/15 03:17:29;;;;;;;41.08;31.45;;;12.60;99.90;;;;;;4115937;28;20133;-53
2023/05/15 03:19:31;;;;;;;39.00;30.67;;;12.40;99.90;;;;;;4115864;28;20051;-53
2023/05/15 03:21:33;;;;;;;40.92;30.80;;;12.40;99.90;;;;;;4115884;28;20047;-53
2023/05/15 03:23:37;;;;;;;43.42;33.58;;;12.40;99.90;;;;;;4115131;28;20055;-52
2023/05/15 03:25:39;;;;;;;36.35;29.50;;;12.40;99.90;;;;;;4118761;28;20038;-53
2023/05/15 03:27:41;;;;;;;36.35;28.33;;;12.30;99.90;;;;;;4131985;28;20056;-53
2023/05/15 03:29:43;;;;;;;36.92;27.42;;;12.50;99.90;;;;;;4131904;28;20464;-54
2023/05/15 03:31:45;;;;;;;35.17;28.20;;;12.60;99.90;;;;;;4131958;28;20438;-52
2023/05/15 03:33:49;;;;;;;38.45;29.35;;;12.60;99.90;;;;;;4127331;28;20047;-53
2023/05/15 03:35:51;;;;;;;36.67;28.15;;;12.60;99.90;;;;;;4115785;28;20047;-52
2023/05/15 03:37:53;;;;;;;34.97;27.83;;;12.70;99.90;;;;;;4115761;28;20461;-53
2023/05/15 03:39:57;;;;;;;37.30;27.92;;;12.70;99.90;;;;;;4115560;28;20042;-53
2023/05/15 03:41:59;;;;;;;37.35;29.00;;;12.70;99.90;;;;;;4098635;28;20114;-52
2023/05/15 03:44:01;;;;;;;37.58;29.42;;;12.70;99.90;;;;;;4114843;28;20109;-53
2023/05/15 03:46:04;;;;;;;39.00;30.75;;;12.60;99.90;;;;;;4115482;28;20481;-52
2023/05/15 03:48:06;;;;;;;37.67;28.55;;;12.40;99.90;;;;;;4115777;28;20408;-53
2023/05/15 03:50:09;;;;;;;35.55;27.98;;;12.40;99.90;;;;;;4114460;28;20055;-52
2023/05/15 03:52:11;;;;;;;34.85;28.45;;;12.30;99.90;;;;;;4114207;28;20134;-51
2023/05/15 03:54:14;;;;;;;37.15;29.27;;;12.30;99.90;;;;;;4097475;29;20122;-52
2023/05/15 03:56:17;;;;;;;36.42;28.88;;;12.40;99.90;;;;;;4115304;28;20131;-51
2023/05/15 03:58:19;;;;;;;34.13;27.13;;;12.50;99.90;;;;;;4115526;28;20051;-54
2023/05/15 04:00:22;;;;;;;37.13;28.70;;;12.40;99.90;;;;;;4115647;28;20055;-53
2023/05/15 04:02:24;;;;;;;40.47;29.83;;;12.60;99.90;;;;;;4115605;28;20046;-53
2023/05/15 04:04:26;;;;;;;37.85;28.45;;;12.60;99.90;;;;;;4114363;28;20074;-54
2023/05/15 04:06:28;;;;;;;37.10;27.52;;;12.60;99.90;;;;;;4115085;28;20448;-52
2023/05/15 04:08:30;;;;;;;38.20;28.42;;;12.70;99.90;;;;;;4115593;28;20050;-52
2023/05/15 04:10:32;;;;;;;42.17;32.83;;;12.80;99.90;;;;;;4115666;28;20051;-52
2023/05/15 04:12:36;;;;;;;33.33;25.90;;;12.70;99.90;;;;;;4115532;28;20382;-53
2023/05/15 04:14:40;;;;;;;40.97;30.67;;;12.60;99.90;;;;;;4114318;28;20382;-52
2023/05/15 04:16:42;;;;;;;38.30;29.45;;;12.70;99.90;;;;;;4115349;28;20077;-55
2023/05/15 04:18:44;;;;;;;43.33;31.17;;;12.60;99.90;;;;;;4115181;28;20131;-55
2023/05/15 04:20:46;;;;;;;38.15;30.13;;;12.50;99.90;;;;;;4114884;28;20043;-56
2023/05/15 04:22:49;;;;;;;34.25;26.27;;;12.40;99.90;;;;;;4116115;28;20093;-57
2023/05/15 04:24:51;;;;;;;38.60;29.63;;;12.60;99.90;;;;;;4114406;28;20061;-55
2023/05/15 04:26:53;;;;;;;39.05;29.40;;;12.70;99.90;;;;;;4128179;28;20133;-56
2023/05/15 04:28:57;;;;;;;39.65;29.98;;;12.80;99.90;;;;;;4131373;28;20050;-55
2023/05/15 04:31:05;;;;;;;35.97;27.67;;;12.70;99.90;;;;;;4131237;28;20224;-56
2023/05/15 04:33:07;;;;;;;36.83;27.75;;;12.50;99.90;;;;;;4131150;28;20167;-55
2023/05/15 04:35:12;;;;;;;41.40;30.80;;;12.70;99.90;;;;;;4114755;28;20098;-56
2023/05/15 04:37:14;;;;;;;40.75;28.73;;;12.70;99.90;;;;;;4098247;28;20051;-56
2023/05/15 04:39:16;;;;;;;37.67;29.00;;;12.60;99.90;;;;;;4114847;28;20051;-56
2023/05/15 04:41:18;;;;;;;40.22;29.55;;;12.50;99.90;;;;;;4115046;28;20413;-55
2023/05/15 04:43:20;;;;;;;40.45;30.60;;;12.70;99.90;;;;;;4115217;28;20416;-56
2023/05/15 04:45:23;;;;;;;38.78;28.45;;;12.50;99.90;;;;;;4114096;28;20051;-54
2023/05/15 04:47:26;;;;;;;37.42;27.17;;;12.60;99.90;;;;;;4115174;28;20058;-55
2023/05/15 04:49:28;;;;;;;43.08;31.10;;;12.70;99.90;;;;;;4114692;28;20046;-54
2023/05/15 04:51:30;;;;;;;42.53;29.88;;;12.50;99.90;;;;;;4115246;28;20105;-54
2023/05/15 04:53:32;;;;;;;41.85;30.15;;;12.60;99.90;;;;;;4114959;28;20047;-55
2023/05/15 04:55:34;;;;;;;39.50;29.13;;;12.40;99.90;;;;;;4114103;28;20129;-54
2023/05/15 04:57:36;;;;;;;41.15;28.65;;;12.50;99.90;;;;;;4114894;28;20054;-55
2023/05/15 04:59:38;;;;;;;38.97;27.20;;;12.60;99.90;;;;;;4115155;28;20109;-54
2023/05/15 05:01:42;;;;;;;32.97;24.83;;;12.70;99.90;;;;;;4115047;28;20138;-54
2023/05/15 05:03:44;;;;;;;36.35;27.08;;;12.80;99.90;;;;;;4114560;28;20405;-55
2023/05/15 05:05:46;;;;;;;42.92;29.40;;;12.80;99.90;;;;;;4114197;28;20066;-57
2023/05/15 05:07:50;;;;;;;40.05;29.45;;;12.80;99.90;;;;;;4114932;28;20121;-51
2023/05/15 05:09:52;;;;;;;42.05;29.73;;;12.80;99.90;;;;;;4115278;28;20489;-53
2023/05/15 05:11:54;;;;;;;41.22;28.88;;;12.70;99.90;;;;;;4117977;28;20051;-55
2023/05/15 05:13:56;;;;;;;40.88;28.45;;;12.70;99.90;;;;;;4117154;28;20050;-56
2023/05/15 05:15:58;;;;;;;39.50;27.58;;;12.70;99.90;;;;;;4117616;28;20481;-54
2023/05/15 05:18:01;;;;;;;38.70;26.67;;;12.80;99.90;;;;;;4117447;28;20094;-53
2023/05/15 05:20:07;;;;;;;43.53;28.55;;;12.80;99.90;;;;;;4100783;28;20501;-54
2023/05/15 05:22:13;;;;;;;41.33;30.70;;;12.80;99.90;;;;;;4117935;28;20054;-54
2023/05/15 05:24:15;;;;;;;42.40;25.23;;;12.70;99.90;;;;;;4116497;28;20055;-54
2023/05/15 05:26:17;;;;;;;39.05;27.55;;;13.00;99.90;;;;;;4125810;28;20489;-54
2023/05/15 05:28:19;;;;;;;38.45;28.05;;;13.00;99.90;;;;;;4133833;28;20074;-52
2023/05/15 05:30:21;;;;;;;36.72;26.63;;;13.00;99.90;;;;;;4133768;28;20046;-57
2023/05/15 05:32:23;;;;;;;40.10;28.77;;;13.10;99.90;;;;;;4116292;28;20047;-52
2023/05/15 05:34:27;;;;;;;45.10;30.10;;;13.00;99.90;;;;;;4123552;28;20051;-53
2023/05/15 05:36:29;;;;;;;45.13;29.77;;;13.00;99.90;;;;;;4117743;28;20046;-54
2023/05/15 05:38:32;;;;;;;40.85;28.05;;;13.00;99.90;;;;;;4117734;28;20046;-54
2023/05/15 05:40:34;;;;;;;44.80;29.80;;;13.00;99.90;;;;;;4117687;28;20429;-55
2023/05/15 05:42:36;;;;;;;38.80;28.33;;;13.10;99.90;;;;;;4117958;28;20130;-54
2023/05/15 05:44:38;;;;;;;47.55;31.98;;;13.10;99.90;;;;;;4116682;28;20055;-55
2023/05/15 05:46:40;;;;;;;46.53;31.67;;;13.10;99.90;;;;;;4117207;28;20054;-55
2023/05/15 05:48:42;;;;;;;49.22;31.95;;;13.10;99.90;;;;;;4117685;28;20461;-54
2023/05/15 05:50:45;;;;;;;45.03;30.83;;;13.10;99.90;;;;;;4100439;29;20073;-54
2023/05/15 05:52:47;;;;;;;50.22;31.92;;;12.80;99.90;;;;;;4117529;28;20129;-54
2023/05/15 05:54:49;;;;;;;49.05;32.15;;;12.90;99.90;;;;;;4116259;28;20054;-55
2023/05/15 05:56:51;;;;;;;47.25;30.70;;;13.00;99.90;;;;;;4117586;28;20717;-54
2023/05/15 05:58:55;;;;;;;50.33;32.17;;;13.00;99.90;;;;;;4117334;28;20061;-56
2023/05/15 06:00:57;;;;;;;54.58;34.90;;;12.90;99.90;;;;;;4099760;29;20484;-55
2023/05/15 06:02:59;;;;;;;42.97;29.98;;;12.80;99.90;;;;;;4117385;28;20046;-56
2023/05/15 06:05:02;;;;;;;44.72;29.65;;;12.90;99.90;;;;;;4116284;28;20054;-55
2023/05/15 06:07:06;;;;;;;55.13;33.40;;;13.10;99.90;;;;;;4100443;29;20501;-56
2023/05/15 06:09:08;;;;;;;42.00;28.33;;;13.20;99.90;;;;;;4118758;28;20075;-54
2023/05/15 06:13:55;;;;;;;60.78;37.03;;;13.20;99.90;;;;;;4118283;28;20042;-53
2023/05/15 06:16:50;;;;;;;49.28;32.55;;;13.10;99.90;;;;;;4116666;28;20089;-54
2023/05/15 06:18:59;;;;;;;55.65;33.20;;;13.30;99.90;;;;;;4118505;28;20384;-59
2023/05/15 06:21:02;;;;;;;48.35;31.75;;;13.40;99.90;;;;;;4118538;28;20497;-55
2023/05/15 06:23:06;;;;;;;41.70;28.88;;;13.40;99.90;;;;;;4117521;28;20113;-62
2023/05/15 06:25:13;;;;;;;46.30;30.85;;;13.50;99.90;;;;;;4117566;28;20066;-59
2023/05/15 06:27:15;;;;;;;52.35;32.63;;;13.50;99.90;;;;;;4134578;28;20050;-64
2023/05/15 06:29:20;;;;;;;;;;;13.60;99.90;;;;;;4135023;28;20050;-55
2023/05/15 06:31:23;;;;;;;45.63;28.30;;;13.50;99.90;;;;;;4134474;28;19928;-63
2023/05/15 06:33:26;;;;;;;49.00;32.50;;;13.50;99.90;;;;;;4132885;28;20054;-61
2023/05/15 06:35:28;;;;;;;56.30;33.92;;;13.60;99.90;;;;;;4115937;28;20180;-55
2023/05/15 06:37:30;;;;;;;47.00;29.33;;;13.70;99.90;;;;;;4116897;28;20133;-54
2023/05/15 06:39:34;;;;;;;44.35;29.00;;;13.90;99.90;;;;;;4116837;28;20568;-55
2023/05/15 06:41:36;;;;;;;46.92;31.58;;;13.90;99.90;;;;;;4116554;28;20061;-53
2023/05/15 06:43:38;;;;;;;50.47;33.90;;;13.80;99.90;;;;;;4116797;28;20046;-55
2023/05/15 06:45:40;;;;;;;42.22;29.58;;;13.90;99.90;;;;;;4115162;28;20055;-56
2023/05/15 06:47:42;;;;;;;54.22;36.35;;;14.00;99.90;;;;;;4116511;28;20409;-55
2023/05/15 06:49:44;;;;;;;51.83;34.70;;;14.00;99.90;;;;;;4116497;28;20051;-53
2023/05/15 06:51:47;;;;;;;51.38;33.22;;;14.00;99.90;;;;;;4116653;28;20050;-55
2023/05/15 06:53:49;;;;;;;52.75;35.20;;;14.10;99.90;;;;;;4116428;28;20047;-57
2023/05/15 06:55:52;;;;;;;45.83;32.13;;;14.10;99.90;;;;;;4115574;28;20113;-54
2023/05/15 06:57:54;;;;;;;49.67;32.75;;;14.20;99.90;;;;;;4116483;28;20074;-52
2023/05/15 06:59:56;;;;;;;47.55;31.08;;;14.10;99.90;;;;;;4116087;28;20448;-51
2023/05/15 07:01:59;;;;;;;52.13;33.40;;;14.10;99.90;;;;;;4116096;28;20051;-53
2023/05/15 07:04:01;;;;;;;46.92;30.13;;;14.20;99.90;;;;;;4116298;28;20532;-49
2023/05/15 07:06:03;;;;;;;52.92;35.25;;;14.30;99.90;;;;;;4115553;28;20474;-52
2023/05/15 07:08:05;;;;;;;50.33;32.05;;;14.30;99.90;;;;;;4116485;28;20489;-54
2023/05/15 07:10:08;;;;;;;45.72;31.70;;;14.30;99.90;;;;;;4115940;28;20057;-52
2023/05/15 07:12:11;;;;;;;42.75;28.48;;;14.40;99.90;;;;;;4116570;28;20051;-55
2023/05/15 07:14:13;;;;;;;46.17;31.50;;;14.40;99.90;;;;;;4115340;28;20057;-52
2023/05/15 07:16:15;;;;;;;43.00;28.38;;;14.50;99.90;;;;;;4115828;28;20050;-53
2023/05/15 07:18:17;;;;;;;37.67;26.63;;;14.50;99.90;;;;;;4116306;28;20176;-52
2023/05/15 07:20:20;;;;;;;38.60;26.35;;;14.40;99.90;;;;;;4115893;28;20091;-53
2023/05/15 07:22:22;;;;;;;42.35;28.33;;;14.50;99.90;;;;;;4116137;28;20431;-53
2023/05/15 07:24:24;;;;;;;39.72;26.08;;;14.60;99.90;;;;;;4114960;28;20047;-53
2023/05/15 07:26:26;;;;;;;41.60;27.70;;;14.60;99.90;;;;;;4125081;28;20081;-53
2023/05/15 07:28:38;;;;;;;35.17;24.83;;;14.50;99.90;;;;;;4131634;28;20054;-52
2023/05/15 07:30:40;;;;;;;29.88;22.05;;;14.50;99.90;;;;;;4131947;28;20131;-53
2023/05/15 07:32:42;;;;;;;37.55;25.75;;;14.60;99.90;;;;;;4131833;28;20048;-54
2023/05/15 07:34:44;;;;;;;36.70;26.08;;;14.60;99.90;;;;;;4119421;28;20129;-52
2023/05/15 07:36:46;;;;;;;35.20;24.05;;;14.70;99.90;;;;;;4115701;28;20456;-54
2023/05/15 07:38:48;;;;;;;35.38;24.02;;;14.70;99.90;;;;;;4115880;28;20047;-52
2023/05/15 07:40:51;;;;;;;29.80;21.20;;;14.80;99.90;;;;;;4115661;28;20051;-59
2023/05/15 07:42:53;;;;;;;33.97;22.33;;;14.80;99.90;;;;;;4115492;28;20061;-54
2023/05/15 07:44:56;;;;;;;38.00;22.17;;;14.90;99.90;;;;;;4114730;28;20058;-54
2023/05/15 07:46:58;;;;;;;32.35;21.35;;;14.90;99.90;;;;;;4116026;28;20070;-55
2023/05/15 07:49:00;;;;;;;32.08;22.38;;;14.90;99.90;;;;;;4116440;28;20054;-58
2023/05/15 07:51:03;;;;;;;30.65;22.75;;;15.10;99.90;;;;;;4115990;28;20113;-60
2023/05/15 07:53:05;;;;;;;30.27;22.38;;;15.10;99.90;;;;;;4116575;28;20125;-52
2023/05/15 07:55:08;;;;;;;34.42;23.00;;;15.10;99.90;;;;;;4115213;28;20054;-51
2023/05/15 07:57:11;;;;;;;34.63;24.00;;;15.10;99.90;;;;;;4116393;28;20050;-54
2023/05/15 07:59:14;;;;;;;34.85;23.95;;;15.20;99.90;;;;;;4116278;28;20046;-52
2023/05/15 08:01:17;;;;;;;34.75;22.17;;;15.20;99.90;;;;;;4116733;28;20501;-53
2023/05/15 08:03:19;;;;;;;41.53;27.50;;;15.20;99.90;;;;;;4116392;28;20081;-51
2023/05/15 08:05:22;;;;;;;32.47;21.27;;;15.30;99.90;;;;;;4114459;28;20059;-52
2023/05/15 08:07:24;;;;;;;33.25;22.35;;;15.30;99.90;;;;;;4115545;28;20556;-51
2023/05/15 08:09:26;;;;;;;38.97;25.23;;;15.30;99.90;;;;;;4115868;28;20445;-52
2023/05/15 08:11:28;;;;;;;37.63;25.73;;;15.30;99.90;;;;;;4114874;28;20046;-52
2023/05/15 08:13:30;;;;;;;36.72;25.13;;;15.30;99.90;;;;;;4115593;28;20074;-53
2023/05/15 08:15:32;;;;;;;36.42;23.63;;;15.20;99.90;;;;;;4114391;28;20477;-52
2023/05/15 08:17:35;;;;;;;32.80;21.88;;;15.20;99.90;;;;;;4115612;28;20050;-53
2023/05/15 08:19:37;;;;;;;30.90;21.98;;;15.30;99.90;;;;;;4115497;28;20106;-53
2023/05/15 08:21:40;;;;;;;28.40;19.55;;;15.30;99.90;;;;;;4115311;28;20043;-53
2023/05/15 08:23:42;;;;;;;31.42;22.45;;;15.30;99.90;;;;;;4115433;28;20388;-52
2023/05/15 08:25:44;;;;;;;35.00;24.50;;;15.30;99.90;;;;;;4117822;28;20049;-53
2023/05/15 08:27:46;;;;;;;28.33;19.98;;;15.40;99.90;;;;;;4131273;28;20225;-52
2023/05/15 08:29:48;;;;;;;29.05;20.88;;;15.40;99.90;;;;;;4131491;28;20054;-53
2023/05/15 08:31:50;;;;;;;32.25;21.75;;;15.30;99.90;;;;;;4131047;28;20134;-52
2023/05/15 08:33:53;;;;;;;31.27;20.80;;;15.30;99.90;;;;;;4109470;28;20074;-57
2023/05/15 08:35:55;;;;;;;29.75;20.77;;;15.40;99.90;;;;;;4114180;28;20053;-53
2023/05/15 08:37:57;;;;;;;34.45;22.25;;;15.30;99.90;;;;;;4115431;28;20074;-53
2023/05/15 08:39:59;;;;;;;28.42;19.23;;;15.30;99.90;;;;;;4115130;28;20473;-55
2023/05/15 08:42:17;;;;;;;33.17;22.08;;;15.40;99.90;;;;;;4115009;28;20417;-54
2023/05/15 08:44:22;;;;;;;27.23;19.30;;;15.50;99.90;;;;;;4115321;28;20166;-53
2023/05/15 08:46:25;;;;;;;31.35;20.30;;;15.50;99.90;;;;;;4117252;28;20528;-56
2023/05/15 08:48:28;;;;;;;32.33;20.30;;;15.60;99.90;;;;;;4118356;28;20061;-55
2023/05/15 08:50:33;;;;;;;31.23;19.80;;;15.50;99.90;;;;;;4118337;28;20054;-54
2023/05/15 08:52:35;;;;;;;31.00;20.50;;;15.60;99.90;;;;;;4118325;28;20086;-53
2023/05/15 08:54:39;;;;;;;27.17;19.08;;;15.80;99.90;;;;;;4117186;28;20050;-56
2023/05/15 08:56:42;;;;;;;31.52;19.88;;;15.90;99.90;;;;;;4117825;28;20074;-56
2023/05/15 08:58:44;;;;;;;34.58;20.85;;;15.90;99.90;;;;;;4118367;28;20553;-55
2023/05/15 09:00:47;;;;;;;29.90;18.88;;;16.10;99.90;;;;;;4118091;28;20451;-55
2023/05/15 09:02:50;;;;;;;29.70;20.50;;;16.00;99.90;;;;;;4118092;28;20098;-54
2023/05/15 09:04:52;;;;;;;32.47;19.38;;;16.10;99.90;;;;;;4117091;28;20038;-56
2023/05/15 09:06:57;;;;;;;31.10;20.33;;;16.20;99.90;;;;;;4118164;28;20352;-55
2023/05/15 09:09:01;;;;;;;26.92;18.60;;;16.30;99.90;;;;;;4117888;28;20051;-55
2023/05/15 09:11:04;;;;;;;26.55;17.38;;;16.20;99.90;;;;;;4117618;28;20051;-54
2023/05/15 09:13:08;;;;;;;31.85;19.80;;;16.30;99.90;;;;;;4118160;28;20058;-55
2023/05/15 09:15:11;;;;;;;32.35;20.17;;;16.20;99.90;;;;;;4117135;28;20117;-54
2023/05/15 09:17:14;;;;;;;25.48;16.63;;;16.30;99.90;;;;;;4100882;29;20051;-56
2023/05/15 09:19:17;;;;;;;29.23;19.38;;;16.40;99.90;;;;;;4100609;29;20063;-55
2023/05/15 09:21:24;;;;;;;25.42;18.15;;;16.40;99.90;;;;;;4117766;28;20054;-55
2023/05/15 09:23:27;;;;;;;30.42;19.90;;;16.60;99.90;;;;;;4117684;28;20054;-56
2023/05/15 09:25:37;;;;;;;32.65;20.33;;;16.60;99.80;;;;;;4118332;28;20046;-51
2023/05/15 09:27:42;;;;;;;29.35;20.70;;;16.60;99.80;;;;;;4134002;28;20046;-51
2023/05/15 09:29:44;;;;;;;25.85;17.52;;;16.60;99.80;;;;;;4134172;28;20113;-51
2023/05/15 09:31:47;;;;;;;25.00;18.15;;;16.60;99.90;;;;;;4133650;28;20047;-51
2023/05/15 09:33:59;;;;;;;30.33;18.35;;;16.70;99.90;;;;;;4130312;28;20039;-58
2023/05/15 09:36:02;;;;;;;26.70;18.42;;;16.80;99.80;;;;;;4100320;29;20055;-51
2023/05/15 09:38:08;;;;;;;26.20;17.63;;;16.70;99.90;;;;;;4117641;28;20055;-54
2023/05/15 09:40:13;;;;;;;27.15;18.13;;;16.90;99.70;;;;;;4117482;28;20073;-55
2023/05/15 09:42:15;;;;;;;28.25;20.23;;;17.10;99.80;;;;;;4117559;28;20089;-55
2023/05/15 09:44:18;;;;;;;33.85;22.55;;;17.20;99.00;;;;;;4117502;28;20051;-54
2023/05/15 09:46:23;;;;;;;32.65;24.08;;;17.20;98.80;;;;;;4116779;28;20042;-56
2023/05/15 09:48:27;;;;;;;37.20;24.50;;;17.20;99.20;;;;;;4118257;28;20047;-55
2023/05/15 09:50:33;;;;;;;34.90;23.27;;;17.30;98.40;;;;;;4117590;28;20416;-55
2023/05/15 09:52:35;;;;;;;36.85;23.48;;;17.30;99.00;;;;;;4117310;28;20224;-55
2023/05/15 09:54:38;;;;;;;37.58;24.35;;;17.30;98.80;;;;;;4117210;28;20448;-55
2023/05/15 09:56:42;;;;;;;39.55;23.42;;;17.30;98.70;;;;;;4116309;28;20074;-55
2023/05/15 09:58:54;;;;;;;40.85;25.52;;;17.40;98.70;;;;;;4117386;28;20051;-59
2023/05/15 10:00:59;;;;;;;41.85;26.80;;;17.40;98.60;;;;;;4117270;28;20045;-55
2023/05/15 10:03:03;;;;;;;40.13;25.30;;;17.40;98.80;;;;;;4117283;28;20129;-60
2023/05/15 10:05:06;;;;;;;38.97;24.77;;;17.10;98.40;;;;;;4116305;28;20728;-55
2023/05/15 10:07:08;;;;;;;31.88;22.10;;;17.00;98.80;;;;;;4118187;28;20420;-56
2023/05/15 10:09:13;;;;;;;34.92;23.10;;;17.10;99.20;;;;;;4116239;28;20047;-55
2023/05/15 10:11:15;;;;;;;39.33;24.98;;;17.10;99.00;;;;;;4117330;28;20118;-54
2023/05/15 10:13:19;;;;;;;35.90;23.83;;;17.10;99.00;;;;;;4117086;28;20473;-53
2023/05/15 10:15:21;;;;;;;32.80;22.00;;;17.20;99.30;;;;;;4116249;28;20075;-55
2023/05/15 10:17:25;;;;;;;34.45;23.63;;;17.20;99.10;;;;;;4117100;28;20057;-54
2023/05/15 10:19:28;;;;;;;37.72;23.40;;;17.20;98.70;;;;;;4116819;28;20055;-54
2023/05/15 10:21:32;;;;;;;40.78;26.60;;;17.20;98.90;;;;;;4116947;28;20053;-56
2023/05/15 10:23:35;;;;;;;33.85;23.20;;;17.40;98.70;;;;;;4116754;28;20074;-54
2023/05/15 10:25:41;;;;;;;32.20;21.38;;;17.40;98.60;;;;;;4118796;28;20046;-55
2023/05/15 10:27:45;;;;;;;36.78;24.48;;;17.50;98.70;;;;;;4115930;28;20047;-56
2023/05/15 10:29:50;;;;;;;32.60;23.38;;;17.40;98.80;;;;;;4133336;28;20137;-56